Time;durP1;ratioP1;P1;durP2;ratioP2;P2;SDS_P1;SDS_P2;PMS_P1;PMS_P2;Temp;Humidity;BMP_temperature;BMP_pressure;BME280_temperature;BME280_humidity;BME280_pressure;Samples;Min_cycle;Max_cycle;Signal;HPM_P1;HPM_P2
2024/01/04 06:44:27;;;;;;;2.88;1.75;;;;;;;;;;10586515;27;20781;-85
2024/01/04 06:49:28;;;;;;;2.35;0.75;;;;;;;;;;10583303;28;20031;-85
2024/01/04 06:54:29;;;;;;;1.00;0.40;;;;;;;;;;10584230;28;20023;-84
2024/01/04 06:59:30;;;;;;;0.73;0.40;;;;;;;;;;10611893;28;20069;-83
2024/01/04 07:04:31;;;;;;;1.77;0.70;;;;;;;;;;10596759;28;20028;-83
2024/01/04 07:09:35;;;;;;;1.05;0.60;;;;;;;;;;10585691;28;20059;-83
2024/01/04 07:14:38;;;;;;;2.78;1.30;;;;;;;;;;10587067;28;20046;-84
2024/01/04 07:19:42;;;;;;;1.65;0.82;;;;;;;;;;10585735;28;20032;-84
2024/01/04 07:24:43;;;;;;;0.98;0.70;;;;;;;;;;10589867;28;20546;-84
2024/01/04 07:29:45;;;;;;;6.78;4.45;;;;;;;;;;10589440;28;20109;-83
2024/01/04 07:34:49;;;;;;;;;;;;;;;;;;10586322;28;20123;-84
2024/01/04 07:39:50;;;;;;;1.38;0.50;;;;;;;;;;10586294;28;19912;-84
2024/01/04 07:44:51;;;;;;;1.95;1.20;;;;;;;;;;10586986;28;20110;-85
2024/01/04 07:49:52;;;;;;;1.88;1.00;;;;;;;;;;10583750;28;20126;-84
2024/01/04 07:54:53;;;;;;;1.38;0.70;;;;;;;;;;10562850;28;20020;-84
2024/01/04 07:59:54;;;;;;;1.40;0.82;;;;;;;;;;10563177;28;20056;-85
2024/01/04 08:04:56;;;;;;;;;;;;;;;;;;10566524;28;20032;-87
2024/01/04 08:09:57;;;;;;;1.10;0.65;;;;;;;;;;10563377;28;19915;-86
2024/01/04 08:14:58;;;;;;;1.58;0.80;;;;;;;;;;10562208;28;20122;-84
2024/01/04 08:19:59;;;;;;;;;;;;;;;;;;10559321;28;20145;-84
2024/01/04 08:25:00;;;;;;;3.65;2.25;;;;;;;;;;10559359;28;19911;-82
2024/01/04 08:30:01;;;;;;;;;;;;;;;;;;10555648;28;20028;-82
2024/01/04 08:35:02;;;;;;;0.80;0.60;;;;;;;;;;10552872;28;19908;-85
2024/01/04 08:40:04;;;;;;;;;;;;;;;;;;10555330;28;20471;-83
2024/01/04 08:45:06;;;;;;;2.33;1.80;;;;;;;;;;10553865;28;19904;-84
2024/01/04 08:50:07;;;;;;;2.38;0.70;;;;;;;;;;10553257;28;20121;-82
2024/01/04 08:55:09;;;;;;;3.92;2.78;;;;;;;;;;10553510;28;20484;-82
2024/01/04 09:00:10;;;;;;;1.50;1.00;;;;;;;;;;10553934;28;20074;-82
2024/01/04 09:05:12;;;;;;;1.50;1.10;;;;;;;;;;10556151;28;20024;-84
2024/01/04 09:10:13;;;;;;;1.27;0.80;;;;;;;;;;10565331;28;20032;-82
2024/01/04 09:15:14;;;;;;;0.93;0.68;;;;;;;;;;10575584;28;20005;-83
2024/01/04 09:20:15;;;;;;;;;;;;;;;;;;10580401;28;20024;-82
2024/01/04 09:25:16;;;;;;;1.25;1.00;;;;;;;;;;10556843;28;19911;-82
2024/01/04 09:30:18;;;;;;;2.10;1.40;;;;;;;;;;10553174;28;20586;-82
2024/01/04 09:35:22;;;;;;;4.18;3.47;;;;;;;;;;10551643;28;20078;-81
2024/01/04 09:40:24;;;;;;;2.85;2.10;;;;;;;;;;10553352;28;20044;-84
2024/01/04 09:45:25;;;;;;;1.38;0.80;;;;;;;;;;10552031;28;20031;-83
2024/01/04 09:50:27;;;;;;;3.38;2.00;;;;;;;;;;10562103;28;20051;-83
2024/01/04 09:55:28;;;;;;;2.05;1.40;;;;;;;;;;10555926;28;20052;-83
2024/01/04 10:00:29;;;;;;;1.40;1.10;;;;;;;;;;10554905;28;20020;-84
2024/01/04 10:05:32;;;;;;;2.15;1.40;;;;;;;;;;10555086;28;20036;-82
2024/01/04 10:10:35;;;;;;;2.30;1.05;;;;;;;;;;10552406;28;20035;-83
2024/01/04 10:15:39;;;;;;;1.30;0.90;;;;;;;;;;10555181;28;20048;-83
2024/01/04 10:20:41;;;;;;;2.17;1.42;;;;;;;;;;10552991;28;20445;-82
2024/01/04 10:25:41;;;;;;;;;;;;;;;;;;10553424;28;20472;-82
2024/01/04 10:30:44;;;;;;;2.95;1.85;;;;;;;;;;10559098;28;19930;-82
2024/01/04 10:35:45;;;;;;;2.00;1.30;;;;;;;;;;10545769;28;20436;-82
2024/01/04 10:40:46;;;;;;;;;;;;;;;;;;10544479;28;20123;-83
2024/01/04 10:45:53;;;;;;;2.65;1.90;;;;;;;;;;10548181;28;19930;-84
2024/01/04 10:50:57;;;;;;;3.05;2.22;;;;;;;;;;10532924;28;20047;-85
2024/01/04 10:55:59;;;;;;;3.05;1.40;;;;;;;;;;10548371;28;20388;-84
2024/01/04 11:01:01;;;;;;;3.22;2.30;;;;;;;;;;10548533;28;20035;-84
2024/01/04 11:06:02;;;;;;;3.47;2.50;;;;;;;;;;10544968;28;20509;-83
2024/01/04 11:11:05;;;;;;;2.30;1.52;;;;;;;;;;10548468;28;20016;-82
2024/01/04 11:16:15;;;;;;;2.80;1.80;;;;;;;;;;10552539;28;20055;-83
2024/01/04 11:21:34;;;;;;;2.33;1.70;;;;;;;;;;10562163;28;20499;-84
2024/01/04 11:26:41;;;;;;;2.85;1.33;;;;;;;;;;10567202;28;20038;-84
2024/01/04 11:31:43;;;;;;;1.77;1.05;;;;;;;;;;10583784;28;20100;-83
2024/01/04 11:36:44;;;;;;;2.45;1.30;;;;;;;;;;10584910;28;20028;-84
2024/01/04 11:41:45;;;;;;;1.98;1.38;;;;;;;;;;10574559;28;20061;-84
2024/01/04 11:46:46;;;;;;;;;;;;;;;;;;10557761;28;20210;-83
2024/01/04 11:51:48;;;;;;;4.40;2.10;;;;;;;;;;10551614;28;20361;-84
2024/01/04 11:56:49;;;;;;;2.33;1.67;;;;;;;;;;10549368;28;20026;-85
2024/01/04 12:01:49;;;;;;;;;;;;;;;;;;10559198;28;20418;-84
2024/01/04 12:06:51;;;;;;;2.30;1.48;;;;;;;;;;10558350;28;19910;-84
2024/01/04 12:11:56;;;;;;;2.97;1.33;;;;;;;;;;10559445;28;20028;-83
2024/01/04 12:16:57;;;;;;;3.42;1.67;;;;;;;;;;10556322;28;20028;-82
2024/01/04 12:21:58;;;;;;;;;;;;;;;;;;10554727;28;20024;-82
2024/01/04 12:26:59;;;;;;;2.70;1.77;;;;;;;;;;10550651;28;19904;-83
2024/01/04 12:32:00;;;;;;;;;;;;;;;;;;10554101;28;20186;-84
2024/01/04 12:37:06;;;;;;;2.25;1.40;;;;;;;;;;10562227;28;19904;-85
2024/01/04 12:42:07;;;;;;;2.30;1.80;;;;;;;;;;10580993;28;20039;-85
2024/01/04 12:47:09;;;;;;;8.60;6.25;;;;;;;;;;10583282;28;20032;-85
2024/01/04 12:52:13;;;;;;;3.22;1.75;;;;;;;;;;10576440;28;20051;-84
2024/01/04 12:57:14;;;;;;;1.70;1.40;;;;;;;;;;10509316;22;20044;-78
2024/01/04 13:02:15;;;;;;;;;;;;;;;;;;10465176;28;20469;-79
2024/01/04 13:07:19;;;;;;;2.63;2.03;;;;;;;;;;10478730;28;19963;-79
2024/01/04 13:12:20;;;;;;;2.40;1.55;;;;;;;;;;10508662;28;20009;-79
2024/01/04 13:17:21;;;;;;;;;;;;;;;;;;10466687;28;20045;-80
2024/01/04 13:22:22;;;;;;;3.00;1.50;;;;;;;;;;10465840;28;19919;-80
2024/01/04 13:27:23;;;;;;;;;;;;;;;;;;10466300;28;20029;-79
2024/01/04 13:32:24;;;;;;;3.25;2.03;;;;;;;;;;10467723;28;19904;-79
2024/01/04 13:37:25;;;;;;;;;;;;;;;;;;10463864;28;20127;-79
2024/01/04 13:42:26;;;;;;;4.60;2.10;;;;;;;;;;10477385;28;19974;-80
2024/01/04 13:47:27;;;;;;;;;;;;;;;;;;10466858;28;20116;-81
2024/01/04 13:52:28;;;;;;;2.22;1.50;;;;;;;;;;10465126;28;19905;-82
2024/01/04 13:57:29;;;;;;;;;;;;;;;;;;10468473;28;20100;-80
2024/01/04 14:02:30;;;;;;;2.42;1.48;;;;;;;;;;10472645;28;19915;-79
2024/01/04 14:07:30;;;;;;;;;;;;;;;;;;10472517;28;20112;-79
2024/01/04 14:12:31;;;;;;;2.08;1.38;;;;;;;;;;10474270;28;20386;-79
2024/01/04 14:17:33;;;;;;;;;;;;;;;;;;10478482;28;20073;-82
2024/01/04 14:22:34;;;;;;;;;;;;;;;;;;10469312;28;19920;-81
2024/01/04 14:27:35;;;;;;;2.60;1.65;;;;;;;;;;10473155;28;19905;-82
2024/01/04 14:32:36;;;;;;;3.15;1.85;;;;;;;;;;10467740;28;20447;-80
2024/01/04 14:37:40;;;;;;;;;;;;;;;;;;10466697;28;20048;-81
2024/01/04 14:42:41;;;;;;;2.75;1.50;;;;;;;;;;10467433;28;20021;-80
2024/01/04 14:47:42;;;;;;;;;;;;;;;;;;10466963;28;20115;-81
2024/01/04 14:52:43;;;;;;;;;;;;;;;;;;10465630;28;19911;-80
2024/01/04 14:57:45;;;;;;;2.35;1.65;;;;;;;;;;10474362;28;19966;-80
2024/01/04 15:02:46;;;;;;;4.40;2.50;;;;;;;;;;10476127;28;20065;-82
2024/01/04 15:07:47;;;;;;;4.28;2.47;;;;;;;;;;10479624;28;20028;-82
2024/01/04 15:12:49;;;;;;;3.13;2.00;;;;;;;;;;10480398;28;20473;-83
2024/01/04 15:17:50;;;;;;;5.45;2.60;;;;;;;;;;10478136;28;20111;-82
2024/01/04 15:22:51;;;;;;;;;;;;;;;;;;10479024;28;20060;-83
2024/01/04 15:27:54;;;;;;;7.47;4.85;;;;;;;;;;10479469;28;20344;-83
2024/01/04 15:32:55;;;;;;;4.22;2.17;;;;;;;;;;10486471;28;20029;-84
2024/01/04 15:37:56;;;;;;;6.80;3.30;;;;;;;;;;10480364;28;20029;-82
2024/01/04 15:42:58;;;;;;;9.93;4.35;;;;;;;;;;10480174;28;20028;-83
2024/01/04 15:47:59;;;;;;;6.93;3.38;;;;;;;;;;10479311;28;20025;-81
2024/01/04 15:53:01;;;;;;;9.18;5.38;;;;;;;;;;10497251;28;20071;-82
2024/01/04 15:58:03;;;;;;;4.05;2.70;;;;;;;;;;10483557;28;20025;-82
2024/01/04 16:03:04;;;;;;;7.28;4.70;;;;;;;;;;10474745;28;20120;-81
2024/01/04 16:08:06;;;;;;;5.45;2.95;;;;;;;;;;10473151;28;20130;-81
2024/01/04 16:13:08;;;;;;;8.95;4.88;;;;;;;;;;10470747;28;20051;-82
2024/01/04 16:18:09;;;;;;;5.65;3.30;;;;;;;;;;10483040;28;20055;-81
2024/01/04 16:23:10;;;;;;;;;;;;;;;;;;10488956;28;20028;-81
2024/01/04 16:28:11;;;;;;;6.47;2.65;;;;;;;;;;10510085;28;20095;-82
2024/01/04 16:33:12;;;;;;;6.72;2.95;;;;;;;;;;10481722;28;20013;-82
2024/01/04 16:38:13;;;;;;;;;;;;;;;;;;10477089;28;20022;-82
2024/01/04 16:43:16;;;;;;;7.70;2.78;;;;;;;;;;10474243;28;20352;-81
2024/01/04 16:48:17;;;;;;;7.93;2.97;;;;;;;;;;10476492;28;20069;-81
2024/01/04 16:53:18;;;;;;;;;;;;;;;;;;10472842;28;20090;-81
2024/01/04 16:58:19;;;;;;;4.47;2.63;;;;;;;;;;10473274;28;19909;-81
2024/01/04 17:03:20;;;;;;;5.53;2.58;;;;;;;;;;10472935;28;20207;-81
2024/01/04 17:08:21;;;;;;;;;;;;;;;;;;10482558;28;20051;-80
2024/01/04 17:13:22;;;;;;;5.28;1.85;;;;;;;;;;10478621;28;19999;-82
2024/01/04 17:18:25;;;;;;;4.47;2.00;;;;;;;;;;10472750;28;20059;-85
2024/01/04 17:23:58;;;;;;;6.50;2.45;;;;;;;;;;10468294;28;20079;-85
2024/01/04 17:29:01;;;;;;;6.10;2.42;;;;;;;;;;10472793;28;20033;-85
2024/01/04 17:39:46;;;;;;;4.67;2.40;;;;;;;;;;10475374;28;20032;-85
2024/01/04 17:44:47;;;;;;;4.47;2.00;;;;;;;;;;10468445;28;20055;-85
2024/01/04 17:55:27;;;;;;;5.95;2.20;;;;;;;;;;10470720;28;20037;-86
2024/01/04 18:00:40;;;;;;;;;;;;;;;;;;10473808;28;20049;-86
2024/01/04 18:05:42;;;;;;;4.53;2.22;;;;;;;;;;10469259;28;20381;-86
2024/01/04 18:10:43;;;;;;;4.60;2.30;;;;;;;;;;10468551;28;20036;-85
2024/01/04 18:15:44;;;;;;;4.97;2.50;;;;;;;;;;10467636;28;20048;-86
2024/01/04 18:20:45;;;;;;;;;;;;;;;;;;10473293;28;20123;-85
2024/01/04 18:25:46;;;;;;;6.35;2.50;;;;;;;;;;10471272;28;19905;-86
2024/01/04 18:30:47;;;;;;;;;;;;;;;;;;10470168;28;20481;-85
2024/01/04 18:35:48;;;;;;;7.45;3.08;;;;;;;;;;10468669;28;19905;-85
2024/01/04 18:40:49;;;;;;;5.60;2.30;;;;;;;;;;10469175;28;20132;-85
2024/01/04 18:45:50;;;;;;;7.78;2.95;;;;;;;;;;10484069;28;20032;-85
2024/01/04 18:50:51;;;;;;;5.05;2.17;;;;;;;;;;10503282;28;20381;-86
